createdAt,value
2019-02-17T00:00:56.809Z,29.20
2019-02-17T00:03:31.501Z,29.52
2019-02-17T00:06:03.472Z,29.50
2019-02-17T00:08:34.436Z,29.95
2019-02-17T00:11:04.530Z,30.37
2019-02-17T00:13:34.609Z,30.23
2019-02-17T00:16:05.681Z,32.23
2019-02-17T00:18:45.213Z,26.30
2019-02-17T00:21:15.393Z,27.75
2019-02-17T00:23:52.213Z,27.32
2019-02-17T00:26:24.364Z,28.05
2019-02-17T00:28:59.410Z,28.80
2019-02-17T00:31:26.306Z,28.00
2019-02-17T00:33:59.493Z,30.52
2019-02-17T00:36:29.565Z,28.60
2019-02-17T00:39:01.642Z,26.60
2019-02-17T00:41:31.715Z,29.37
2019-02-17T00:44:02.874Z,29.92
2019-02-17T00:46:36.010Z,29.50
2019-02-17T00:49:11.845Z,28.92
2019-02-17T00:51:43.709Z,27.40
2019-02-17T00:54:13.751Z,28.65
2019-02-17T00:56:43.856Z,28.80
2019-02-17T00:59:13.947Z,29.12
2019-02-17T01:01:53.209Z,26.60
2019-02-17T01:04:23.305Z,28.12
2019-02-17T01:06:57.490Z,26.87
2019-02-17T01:09:33.709Z,25.57
2019-02-17T01:12:03.797Z,26.35
2019-02-17T01:14:34.873Z,26.95
2019-02-17T01:17:04.973Z,27.65
2019-02-17T01:19:35.052Z,27.00
2019-02-17T01:22:05.154Z,27.40
2019-02-17T01:24:36.265Z,26.73
2019-02-17T01:27:07.034Z,27.10
2019-02-17T01:29:45.989Z,25.90
2019-02-17T01:32:16.987Z,25.12
2019-02-17T01:34:53.095Z,25.95
2019-02-17T01:37:23.172Z,25.25
2019-02-17T01:40:00.349Z,24.50
2019-02-17T01:42:30.410Z,25.48
2019-02-17T01:45:00.525Z,25.25
2019-02-17T01:47:30.611Z,25.08
2019-02-17T01:50:10.427Z,25.55
2019-02-17T01:52:40.516Z,24.77
2019-02-17T01:55:10.741Z,24.23
2019-02-17T01:57:40.871Z,24.90
2019-02-17T02:00:16.167Z,26.00
2019-02-17T02:02:46.256Z,26.17
2019-02-17T02:05:17.090Z,23.95
2019-02-17T02:07:47.187Z,25.85
2019-02-17T02:10:17.284Z,25.20
2019-02-17T02:12:47.375Z,25.30
2019-02-17T02:15:20.541Z,25.40
2019-02-17T02:17:50.578Z,25.92
2019-02-17T02:20:21.660Z,24.47
2019-02-17T02:22:58.741Z,26.82
2019-02-17T02:25:34.690Z,25.00
2019-02-17T02:28:10.534Z,24.27
2019-02-17T02:30:44.696Z,24.50
2019-02-17T02:33:15.011Z,24.05
2019-02-17T02:35:45.202Z,26.15
2019-02-17T02:38:16.256Z,26.70
2019-02-17T02:40:47.274Z,24.50
2019-02-17T02:43:19.412Z,25.48
2019-02-17T02:45:52.537Z,25.65
2019-02-17T02:48:23.677Z,24.57
2019-02-17T02:50:57.564Z,24.43
2019-02-17T02:53:27.689Z,25.12
2019-02-17T02:56:02.911Z,25.37
2019-02-17T02:58:42.026Z,24.25
2019-02-17T03:01:12.893Z,23.55
2019-02-17T03:03:45.886Z,24.32
2019-02-17T03:06:16.430Z,23.65
2019-02-17T03:09:01.706Z,22.82
2019-02-17T03:11:37.692Z,25.27
2019-02-17T03:14:09.745Z,23.30
2019-02-17T03:16:39.849Z,25.15
2019-02-17T03:19:09.949Z,23.77
2019-02-17T03:21:42.020Z,24.43
2019-02-17T03:24:17.865Z,25.50
2019-02-17T03:26:47.978Z,23.73
2019-02-17T03:29:21.072Z,23.98
2019-02-17T03:31:53.134Z,24.67
2019-02-17T03:34:32.068Z,24.67
2019-02-17T03:37:02.162Z,23.87
2019-02-17T03:39:32.281Z,25.70
2019-02-17T03:42:02.798Z,23.65
2019-02-17T03:44:33.877Z,27.30
2019-02-17T03:47:04.962Z,25.65
2019-02-17T03:49:38.104Z,26.87
2019-02-17T03:52:09.224Z,25.30
2019-02-17T03:54:40.284Z,23.87
2019-02-17T03:57:10.381Z,24.67
2019-02-17T03:59:41.684Z,28.23
2019-02-17T04:02:11.788Z,26.05
2019-02-17T04:04:43.846Z,27.17
2019-02-17T04:07:13.966Z,27.00
2019-02-17T04:09:44.074Z,26.82
2019-02-17T04:12:18.186Z,23.57
2019-02-17T04:14:48.757Z,26.68
2019-02-17T04:17:19.781Z,24.90
2019-02-17T04:19:49.876Z,24.87
2019-02-17T04:22:19.988Z,26.45
2019-02-17T04:24:51.029Z,24.07
2019-02-17T04:27:22.064Z,25.02
2019-02-17T04:29:52.182Z,25.80
2019-02-17T04:32:22.300Z,24.20
2019-02-17T04:34:54.387Z,25.08
2019-02-17T04:37:24.486Z,24.72
2019-02-17T04:39:56.552Z,26.35
2019-02-17T04:42:26.730Z,25.12
2019-02-17T04:44:56.818Z,26.00
2019-02-17T04:47:29.794Z,25.55
2019-02-17T04:49:59.896Z,27.70
2019-02-17T04:52:30.057Z,27.75
2019-02-17T04:55:00.298Z,30.40
2019-02-17T04:57:33.317Z,28.60
2019-02-17T05:00:04.067Z,31.52
2019-02-17T05:02:34.168Z,31.35
2019-02-17T05:05:06.612Z,30.50
2019-02-17T05:07:38.530Z,31.68
2019-02-17T05:10:12.345Z,29.67
2019-02-17T05:12:42.438Z,29.57
2019-02-17T05:15:12.558Z,29.95
2019-02-17T05:17:42.642Z,32.00
2019-02-17T05:20:12.825Z,29.12
2019-02-17T05:22:44.461Z,28.27
2019-02-17T05:25:14.564Z,28.40
2019-02-17T05:27:44.654Z,29.70
2019-02-17T05:30:14.743Z,28.38
2019-02-17T05:32:47.510Z,29.40
2019-02-17T05:35:17.598Z,28.38
2019-02-17T05:37:47.693Z,28.70
2019-02-17T05:40:18.783Z,28.92
2019-02-17T05:42:48.894Z,29.70
2019-02-17T05:45:18.981Z,32.25
2019-02-17T05:47:49.082Z,27.67
2019-02-17T05:50:21.087Z,27.42
2019-02-17T05:52:53.219Z,30.27
2019-02-17T05:55:23.249Z,28.23
2019-02-17T05:57:54.325Z,28.45
2019-02-17T06:00:25.888Z,27.80
2019-02-17T06:02:56.886Z,31.42
2019-02-17T06:05:33.045Z,31.20
2019-02-17T06:08:09.209Z,27.95
2019-02-17T06:10:41.310Z,29.80
2019-02-17T06:13:11.396Z,28.77
2019-02-17T06:15:42.431Z,28.75
2019-02-17T06:18:12.528Z,28.52
2019-02-17T06:20:43.583Z,30.77
2019-02-17T06:23:21.510Z,31.55
2019-02-17T06:25:51.616Z,29.57
2019-02-17T06:28:22.655Z,30.27
2019-02-17T06:30:52.751Z,28.67
2019-02-17T06:33:28.725Z,31.02
2019-02-17T06:35:58.830Z,28.92
2019-02-17T06:38:34.742Z,30.37
2019-02-17T06:41:04.822Z,31.07
2019-02-17T06:43:34.927Z,31.23
2019-02-17T06:46:05.388Z,29.98
2019-02-17T06:48:35.487Z,32.13
2019-02-17T06:51:08.262Z,31.35
2019-02-17T06:53:38.344Z,33.23
2019-02-17T06:56:13.914Z,31.50
2019-02-17T06:58:44.006Z,33.35
2019-02-17T07:01:24.410Z,35.33
2019-02-17T07:03:48.814Z,33.55
2019-02-17T07:06:29.209Z,32.67
2019-02-17T07:09:08.124Z,32.33
2019-02-17T07:11:38.190Z,33.92
2019-02-17T07:14:08.274Z,36.20
2019-02-17T07:16:39.342Z,35.73
2019-02-17T07:19:11.327Z,38.25
2019-02-17T07:21:41.434Z,37.83
2019-02-17T07:24:12.482Z,40.67
2019-02-17T07:26:42.547Z,33.73
2019-02-17T07:29:16.894Z,32.28
2019-02-17T07:31:48.049Z,30.05
2019-02-17T07:34:18.134Z,28.50
2019-02-17T07:36:50.215Z,28.35
2019-02-17T07:39:33.151Z,25.17
2019-02-17T07:42:03.228Z,24.90
2019-02-17T07:44:33.358Z,25.20
2019-02-17T07:47:03.434Z,23.95
2019-02-17T07:49:33.517Z,22.98
2019-02-17T07:52:03.622Z,22.85
2019-02-17T07:54:33.695Z,21.97
2019-02-17T07:57:04.151Z,21.77
2019-02-17T07:59:38.256Z,23.73
2019-02-17T08:02:08.368Z,22.87
2019-02-17T08:04:38.424Z,22.02
2019-02-17T08:07:08.505Z,22.37
2019-02-17T08:09:38.736Z,21.60
2019-02-17T08:12:08.764Z,22.45
2019-02-17T08:14:38.855Z,21.87
2019-02-17T08:17:08.979Z,21.07
2019-02-17T08:19:39.071Z,20.93
2019-02-17T08:22:09.175Z,21.90
2019-02-17T08:24:48.295Z,22.90
2019-02-17T08:27:18.547Z,21.07
2019-02-17T08:29:58.873Z,22.60
2019-02-17T08:32:30.943Z,20.33
2019-02-17T08:35:09.167Z,22.43
2019-02-17T08:37:39.300Z,21.65
2019-02-17T08:40:11.367Z,23.40
2019-02-17T08:42:48.199Z,21.65
2019-02-17T08:45:19.267Z,21.07
2019-02-17T08:47:49.359Z,21.25
2019-02-17T08:50:24.479Z,17.35
2019-02-17T08:52:55.680Z,20.80
2019-02-17T08:55:25.767Z,20.17
2019-02-17T08:57:55.952Z,18.95
2019-02-17T09:00:36.534Z,18.48
2019-02-17T09:03:07.575Z,19.10
2019-02-17T09:05:44.255Z,19.12
2019-02-17T09:08:12.466Z,20.68
2019-02-17T09:10:42.619Z,19.27
2019-02-17T09:13:18.458Z,20.13
2019-02-17T09:15:48.454Z,19.20
2019-02-17T09:18:18.647Z,17.83
2019-02-17T09:20:50.811Z,17.60
2019-02-17T09:23:26.668Z,16.03
2019-02-17T09:25:57.728Z,16.07
2019-02-17T09:28:32.115Z,15.77
2019-02-17T09:31:02.211Z,14.03
2019-02-17T09:33:33.362Z,16.33
2019-02-17T09:36:03.460Z,16.10
2019-02-17T09:38:34.551Z,16.30
2019-02-17T09:41:04.691Z,15.10
2019-02-17T09:43:34.775Z,15.77
2019-02-17T09:46:04.955Z,14.10
2019-02-17T09:48:35.937Z,12.70
2019-02-17T09:51:06.998Z,13.30
2019-02-17T09:53:38.031Z,12.60
2019-02-17T09:56:08.123Z,13.30
2019-02-17T09:58:39.220Z,13.90
2019-02-17T10:01:11.247Z,13.57
2019-02-17T10:03:41.361Z,13.50
2019-02-17T10:06:17.841Z,12.87
2019-02-17T10:09:00.535Z,13.90
2019-02-17T10:11:30.767Z,13.03
2019-02-17T10:14:01.728Z,13.13
2019-02-17T10:16:31.849Z,13.80
2019-02-17T10:19:01.975Z,13.80
2019-02-17T10:21:35.609Z,13.33
2019-02-17T10:24:05.703Z,13.47
2019-02-17T10:26:35.803Z,14.20
2019-02-17T10:29:05.931Z,13.70
2019-02-17T10:31:38.570Z,14.30
2019-02-17T10:34:08.649Z,13.50
2019-02-17T10:36:39.727Z,14.93
2019-02-17T10:39:11.443Z,14.30
2019-02-17T10:41:41.607Z,14.50
2019-02-17T10:44:12.651Z,15.67
2019-02-17T10:46:43.685Z,14.47
2019-02-17T10:49:21.743Z,14.30
2019-02-17T10:51:53.727Z,13.60
2019-02-17T10:54:23.826Z,16.47
2019-02-17T10:56:54.015Z,15.40
2019-02-17T10:59:24.184Z,15.43
2019-02-17T11:01:55.251Z,14.60
2019-02-17T11:04:31.311Z,13.47
2019-02-17T11:07:01.699Z,15.13
2019-02-17T11:09:31.844Z,12.93
2019-02-17T11:12:01.943Z,15.47
2019-02-17T11:14:32.059Z,15.70
2019-02-17T11:17:03.081Z,15.10
2019-02-17T11:19:35.127Z,13.73
2019-02-17T11:22:05.279Z,15.00
2019-02-17T11:24:36.275Z,14.67
2019-02-17T11:27:06.501Z,13.63
2019-02-17T11:29:37.513Z,13.93
2019-02-17T11:32:07.680Z,13.87
2019-02-17T11:34:37.787Z,12.53
2019-02-17T11:37:13.043Z,13.60
2019-02-17T11:39:44.117Z,13.43
2019-02-17T11:42:15.179Z,14.10
2019-02-17T11:44:46.228Z,14.77
2019-02-17T11:47:16.323Z,14.13
2019-02-17T11:49:48.798Z,14.57
2019-02-17T11:52:18.888Z,13.33
2019-02-17T11:54:48.984Z,12.93
2019-02-17T11:57:19.307Z,14.47
2019-02-17T11:59:49.423Z,13.00
2019-02-17T12:02:24.989Z,13.27
2019-02-17T12:04:52.279Z,14.40
2019-02-17T12:07:22.368Z,14.27
2019-02-17T12:09:52.463Z,14.07
2019-02-17T12:12:28.591Z,13.77
2019-02-17T12:15:00.659Z,13.17
2019-02-17T12:17:32.733Z,12.40
2019-02-17T12:20:04.536Z,12.90
2019-02-17T12:22:36.761Z,12.73
2019-02-17T12:25:07.685Z,13.03
2019-02-17T12:27:45.499Z,12.67
2019-02-17T12:30:16.764Z,12.80
2019-02-17T12:32:46.851Z,12.23
2019-02-17T12:35:17.879Z,10.80
2019-02-17T12:37:48.090Z,10.77
2019-02-17T12:40:20.064Z,12.13
2019-02-17T12:42:51.080Z,12.00
2019-02-17T12:45:21.312Z,10.60
2019-02-17T12:47:57.880Z,10.00
2019-02-17T12:50:24.196Z,10.67
2019-02-17T12:52:54.316Z,10.23
2019-02-17T12:55:25.169Z,10.13
2019-02-17T12:58:01.241Z,10.37
2019-02-17T13:00:32.301Z,9.70
2019-02-17T13:03:05.089Z,10.00
2019-02-17T13:05:36.131Z,10.67
2019-02-17T13:08:06.224Z,9.60
2019-02-17T13:10:36.320Z,9.50
2019-02-17T13:13:08.411Z,9.67
2019-02-17T13:15:39.452Z,8.10
2019-02-17T13:18:09.544Z,9.27
2019-02-17T13:20:39.733Z,9.53
2019-02-17T13:23:09.807Z,9.20
2019-02-17T13:25:40.861Z,8.93
2019-02-17T13:28:10.959Z,10.10
2019-02-17T13:30:41.048Z,9.57
2019-02-17T13:33:13.220Z,9.47
2019-02-17T13:35:43.404Z,10.10
2019-02-17T13:38:14.516Z,10.90
2019-02-17T13:40:52.828Z,9.20
2019-02-17T13:43:31.280Z,9.93
2019-02-17T13:46:03.301Z,9.33
2019-02-17T13:48:34.355Z,9.03
2019-02-17T13:51:04.476Z,9.00
2019-02-17T13:53:34.567Z,10.10
2019-02-17T13:56:05.716Z,9.40
2019-02-17T13:58:36.800Z,9.33
2019-02-17T14:01:07.794Z,9.50
2019-02-17T14:03:37.904Z,8.60
2019-02-17T14:06:08.866Z,9.03
2019-02-17T14:08:47.056Z,9.00
2019-02-17T14:11:17.240Z,9.43
2019-02-17T14:13:47.326Z,8.43
2019-02-17T14:16:18.341Z,9.30
2019-02-17T14:18:50.328Z,8.00
2019-02-17T14:21:20.492Z,7.73
2019-02-17T14:23:50.560Z,9.47
2019-02-17T14:26:27.632Z,8.37
2019-02-17T14:28:57.736Z,8.30
2019-02-17T14:31:28.769Z,8.43
2019-02-17T14:33:58.972Z,8.03
2019-02-17T14:36:29.036Z,8.00
2019-02-17T14:38:59.236Z,7.57
2019-02-17T14:41:29.320Z,9.00
2019-02-17T14:44:01.314Z,8.10
2019-02-17T14:46:32.544Z,8.50
2019-02-17T14:49:11.488Z,7.50
2019-02-17T14:51:41.597Z,9.17
2019-02-17T14:54:13.736Z,8.50
2019-02-17T14:56:43.820Z,8.03
2019-02-17T14:59:15.880Z,8.57
2019-02-17T15:01:47.023Z,7.40
2019-02-17T15:04:31.064Z,8.23
2019-02-17T15:07:02.100Z,9.00
2019-02-17T15:09:41.257Z,7.37
2019-02-17T15:12:13.326Z,7.87
2019-02-17T15:14:44.409Z,6.37
2019-02-17T15:17:20.285Z,7.20
2019-02-17T15:19:56.260Z,7.00
2019-02-17T15:22:32.964Z,8.10
2019-02-17T15:25:13.129Z,6.77
2019-02-17T15:27:44.202Z,6.60
2019-02-17T15:30:20.297Z,6.87
2019-02-17T15:33:03.687Z,5.93
2019-02-17T15:35:29.236Z,7.00
2019-02-17T15:37:59.323Z,5.80
2019-02-17T15:40:29.409Z,6.00
2019-02-17T15:43:00.466Z,5.70
2019-02-17T15:45:31.521Z,5.50
2019-02-17T15:48:09.318Z,5.37
2019-02-17T15:50:39.414Z,5.10
2019-02-17T15:53:12.520Z,4.70
2019-02-17T15:55:42.610Z,5.47
2019-02-17T15:58:14.600Z,5.77
2019-02-17T16:00:45.257Z,5.30
2019-02-17T16:03:15.372Z,5.00
2019-02-17T16:05:51.301Z,4.47
2019-02-17T16:08:29.228Z,4.67
2019-02-17T16:10:59.313Z,5.20
2019-02-17T16:13:31.384Z,4.67
2019-02-17T16:16:02.985Z,4.93
2019-02-17T16:18:33.072Z,5.37
2019-02-17T16:21:06.171Z,5.70
2019-02-17T16:23:37.186Z,5.70
2019-02-17T16:26:08.162Z,5.07
2019-02-17T16:28:39.186Z,5.00
2019-02-17T16:31:12.369Z,5.37
2019-02-17T16:33:45.553Z,5.30
2019-02-17T16:36:15.638Z,6.40
2019-02-17T16:38:46.640Z,5.90
2019-02-17T16:41:17.656Z,6.77
2019-02-17T16:43:48.631Z,8.10
2019-02-17T16:46:21.692Z,9.10
2019-02-17T16:49:02.539Z,9.63
2019-02-17T16:51:32.736Z,8.30
2019-02-17T16:54:02.825Z,9.00
2019-02-17T16:56:32.917Z,8.20
2019-02-17T16:59:03.081Z,8.88
2019-02-17T17:01:34.163Z,8.43
2019-02-17T17:04:04.256Z,8.28
2019-02-17T17:06:43.522Z,10.60
2019-02-17T17:09:13.633Z,10.00
2019-02-17T17:11:45.692Z,9.83
2019-02-17T17:14:15.773Z,9.65
2019-02-17T17:16:45.877Z,10.00
2019-02-17T17:19:15.957Z,10.03
2019-02-17T17:21:46.057Z,11.00
2019-02-17T17:24:25.953Z,11.25
2019-02-17T17:26:56.973Z,10.50
2019-02-17T17:29:35.985Z,10.90
2019-02-17T17:32:06.091Z,10.85
2019-02-17T17:34:36.170Z,9.70
2019-02-17T17:37:06.257Z,9.05
2019-02-17T17:39:39.761Z,9.48
2019-02-17T17:42:09.829Z,8.98
2019-02-17T17:44:39.920Z,9.60
2019-02-17T17:47:13.054Z,9.98
2019-02-17T17:49:43.137Z,10.45
2019-02-17T17:52:14.221Z,9.80
2019-02-17T17:54:46.281Z,9.90
2019-02-17T17:57:22.353Z,10.45
2019-02-17T17:59:52.429Z,10.13
2019-02-17T18:02:24.458Z,10.65
2019-02-17T18:05:08.821Z,9.53
2019-02-17T18:07:34.005Z,9.33
2019-02-17T18:10:15.389Z,9.10
2019-02-17T18:12:52.238Z,10.28
2019-02-17T18:15:22.354Z,12.78
2019-02-17T18:17:57.333Z,11.73
2019-02-17T18:20:27.505Z,11.03
2019-02-17T18:22:57.585Z,11.33
2019-02-17T18:25:34.423Z,12.43
2019-02-17T18:28:04.509Z,10.20
2019-02-17T18:30:34.626Z,10.88
2019-02-17T18:33:04.705Z,8.68
2019-02-17T18:35:40.613Z,11.50
2019-02-17T18:38:12.709Z,11.08
2019-02-17T18:40:46.153Z,11.70
2019-02-17T18:43:16.510Z,9.98
2019-02-17T18:45:46.621Z,7.90
2019-02-17T18:48:17.664Z,7.22
2019-02-17T18:50:48.070Z,7.58
2019-02-17T18:53:18.209Z,7.75
2019-02-17T18:55:48.293Z,8.38
2019-02-17T18:58:24.422Z,9.33
2019-02-17T19:00:54.472Z,9.65
2019-02-17T19:03:24.563Z,11.00
2019-02-17T19:05:54.676Z,9.38
2019-02-17T19:08:25.737Z,9.68
2019-02-17T19:10:55.854Z,8.53
2019-02-17T19:13:26.953Z,9.38
2019-02-17T19:15:59.209Z,9.28
2019-02-17T19:18:31.265Z,8.40
2019-02-17T19:21:05.521Z,8.83
2019-02-17T19:23:35.634Z,9.10
2019-02-17T19:26:05.749Z,9.45
2019-02-17T19:28:35.845Z,10.00
2019-02-17T19:31:06.892Z,13.65
2019-02-17T19:33:36.978Z,10.20
2019-02-17T19:36:08.065Z,11.22
2019-02-17T19:38:38.161Z,9.80
2019-02-17T19:41:09.197Z,9.58
2019-02-17T19:43:40.285Z,11.45
2019-02-17T19:46:10.401Z,12.20
2019-02-17T19:48:40.513Z,11.22
2019-02-17T19:51:10.646Z,12.20
2019-02-17T19:53:40.697Z,14.00
2019-02-17T19:56:16.570Z,14.70
2019-02-17T19:58:47.617Z,13.88
2019-02-17T20:01:17.701Z,11.08
2019-02-17T20:03:53.240Z,8.48
2019-02-17T20:06:31.196Z,8.28
2019-02-17T20:09:15.302Z,9.30
2019-02-17T20:11:55.357Z,11.93
2019-02-17T20:14:25.513Z,11.65
2019-02-17T20:16:57.554Z,10.43
2019-02-17T20:19:28.641Z,11.55
2019-02-17T20:22:04.561Z,10.90
2019-02-17T20:24:35.602Z,11.83
2019-02-17T20:27:05.717Z,9.00
2019-02-17T20:29:36.769Z,9.20
2019-02-17T20:32:06.846Z,10.20
2019-02-17T20:34:36.931Z,9.85
2019-02-17T20:37:07.046Z,9.98
2019-02-17T20:39:38.049Z,12.10
2019-02-17T20:42:10.110Z,11.93
2019-02-17T20:44:40.199Z,11.00
2019-02-17T20:47:12.198Z,10.45
2019-02-17T20:49:51.282Z,10.15
2019-02-17T20:52:23.287Z,12.25
2019-02-17T20:54:54.322Z,11.80
2019-02-17T20:57:24.410Z,10.88
2019-02-17T20:59:58.685Z,10.35
2019-02-17T21:02:28.786Z,10.20
2019-02-17T21:05:07.646Z,10.35
2019-02-17T21:07:37.751Z,9.38
2019-02-17T21:10:12.311Z,10.10
2019-02-17T21:12:46.804Z,9.80
2019-02-17T21:15:29.614Z,11.15
2019-02-17T21:18:15.810Z,10.40
2019-02-17T21:20:56.971Z,10.88
2019-02-17T21:23:33.482Z,11.43
2019-02-17T21:26:03.727Z,10.60
2019-02-17T21:28:36.294Z,10.30
2019-02-17T21:31:06.367Z,11.95
2019-02-17T21:33:36.458Z,10.70
2019-02-17T21:36:06.534Z,9.70
2019-02-17T21:38:38.567Z,11.10
2019-02-17T21:41:09.772Z,11.60
2019-02-17T21:43:39.845Z,11.97
2019-02-17T21:46:09.964Z,10.58
2019-02-17T21:48:40.154Z,10.63
2019-02-17T21:51:10.217Z,11.50
2019-02-17T21:53:40.378Z,11.55
2019-02-17T21:56:11.990Z,10.20
2019-02-17T21:58:42.090Z,10.53
2019-02-17T22:01:14.124Z,10.55
2019-02-17T22:03:44.202Z,11.30
2019-02-17T22:06:20.370Z,10.85
2019-02-17T22:08:59.510Z,12.58
2019-02-17T22:11:35.436Z,11.03
2019-02-17T22:14:08.066Z,10.28
2019-02-17T22:16:39.130Z,11.50
2019-02-17T22:19:09.298Z,10.35
2019-02-17T22:21:39.402Z,10.90
2019-02-17T22:24:09.530Z,11.78
2019-02-17T22:26:39.614Z,11.85
2019-02-17T22:29:09.714Z,11.73
2019-02-17T22:31:40.737Z,11.90
2019-02-17T22:34:10.842Z,11.05
2019-02-17T22:36:43.648Z,12.30
2019-02-17T22:39:14.605Z,11.22
2019-02-17T22:41:44.682Z,10.70
2019-02-17T22:44:15.730Z,10.35
2019-02-17T22:46:45.807Z,10.23
2019-02-17T22:49:17.838Z,11.55
2019-02-17T22:51:47.910Z,11.73
2019-02-17T22:54:17.988Z,11.90
2019-02-17T22:56:50.023Z,11.33
2019-02-17T22:59:21.059Z,11.65
2019-02-17T23:01:51.202Z,11.70
2019-02-17T23:04:21.590Z,11.25
2019-02-17T23:07:01.640Z,11.18
2019-02-17T23:09:31.814Z,9.43
2019-02-17T23:12:01.890Z,10.10
2019-02-17T23:14:32.930Z,10.08
2019-02-17T23:17:03.002Z,9.55
2019-02-17T23:19:33.078Z,9.90
2019-02-17T23:22:03.159Z,9.48
2019-02-17T23:24:34.334Z,10.10
2019-02-17T23:27:04.422Z,9.63
2019-02-17T23:29:34.495Z,8.73
2019-02-17T23:32:05.518Z,10.25
2019-02-17T23:34:35.611Z,10.28
2019-02-17T23:37:05.688Z,9.08
2019-02-17T23:39:37.698Z,10.60
2019-02-17T23:42:10.204Z,9.03
2019-02-17T23:44:40.307Z,8.43
2019-02-17T23:47:12.334Z,9.43
2019-02-17T23:49:46.474Z,9.15
2019-02-17T23:52:17.506Z,9.65
2019-02-17T23:54:49.542Z,9.80
2019-02-17T23:57:21.484Z,10.25
2019-02-17T23:59:59.258Z,9.00
